sensor_id;sensor_type;location;lat;lon;timestamp;P1;durP1;ratioP1;P2;durP2;ratioP2
2305;SDS011;1161;51.922;8.896;2023-11-19T00:01:06;2.90;;;2.67;;
2305;SDS011;1161;51.922;8.896;2023-11-19T00:03:33;3.90;;;2.50;;
2305;SDS011;1161;51.922;8.896;2023-11-19T00:06:00;4.00;;;2.90;;
2305;SDS011;1161;51.922;8.896;2023-11-19T00:08:29;4.03;;;3.63;;
2305;SDS011;1161;51.922;8.896;2023-11-19T00:10:56;4.53;;;2.60;;
2305;SDS011;1161;51.922;8.896;2023-11-19T00:13:23;3.80;;;2.70;;
2305;SDS011;1161;51.922;8.896;2023-11-19T00:15:52;0.63;;;0.63;;
2305;SDS011;1161;51.922;8.896;2023-11-19T00:18:19;0.57;;;0.57;;
2305;SDS011;1161;51.922;8.896;2023-11-19T00:20:46;0.50;;;0.50;;
2305;SDS011;1161;51.922;8.896;2023-11-19T00:23:13;0.47;;;0.47;;
2305;SDS011;1161;51.922;8.896;2023-11-19T00:25:40;0.50;;;0.40;;
2305;SDS011;1161;51.922;8.896;2023-11-19T00:28:06;0.40;;;0.40;;
2305;SDS011;1161;51.922;8.896;2023-11-19T00:30:33;0.67;;;0.60;;
2305;SDS011;1161;51.922;8.896;2023-11-19T00:33:02;0.40;;;0.40;;
2305;SDS011;1161;51.922;8.896;2023-11-19T00:35:29;0.70;;;0.70;;
2305;SDS011;1161;51.922;8.896;2023-11-19T00:37:57;1.03;;;0.63;;
2305;SDS011;1161;51.922;8.896;2023-11-19T00:40:24;1.20;;;1.10;;
2305;SDS011;1161;51.922;8.896;2023-11-19T00:42:50;0.57;;;0.57;;
2305;SDS011;1161;51.922;8.896;2023-11-19T00:45:17;0.80;;;0.80;;
2305;SDS011;1161;51.922;8.896;2023-11-19T00:47:44;0.63;;;0.63;;
2305;SDS011;1161;51.922;8.896;2023-11-19T00:50:12;0.50;;;0.50;;
2305;SDS011;1161;51.922;8.896;2023-11-19T00:52:39;0.60;;;0.60;;
2305;SDS011;1161;51.922;8.896;2023-11-19T00:55:06;1.23;;;0.87;;
2305;SDS011;1161;51.922;8.896;2023-11-19T00:57:34;2.30;;;1.40;;
2305;SDS011;1161;51.922;8.896;2023-11-19T01:00:01;4.03;;;0.93;;
2305;SDS011;1161;51.922;8.896;2023-11-19T01:02:32;0.63;;;0.63;;
2305;SDS011;1161;51.922;8.896;2023-11-19T01:04:59;0.63;;;0.63;;
2305;SDS011;1161;51.922;8.896;2023-11-19T01:07:28;0.87;;;0.87;;
2305;SDS011;1161;51.922;8.896;2023-11-19T01:09:54;0.80;;;0.80;;
2305;SDS011;1161;51.922;8.896;2023-11-19T01:12:21;0.80;;;0.80;;
2305;SDS011;1161;51.922;8.896;2023-11-19T01:14:48;0.90;;;0.90;;
2305;SDS011;1161;51.922;8.896;2023-11-19T01:17:15;0.80;;;0.80;;
2305;SDS011;1161;51.922;8.896;2023-11-19T01:19:42;4.07;;;0.80;;
2305;SDS011;1161;51.922;8.896;2023-11-19T01:22:08;2.60;;;0.60;;
2305;SDS011;1161;51.922;8.896;2023-11-19T01:24:36;0.90;;;0.90;;
2305;SDS011;1161;51.922;8.896;2023-11-19T01:27:05;0.40;;;0.40;;
2305;SDS011;1161;51.922;8.896;2023-11-19T01:29:31;0.57;;;0.57;;
2305;SDS011;1161;51.922;8.896;2023-11-19T01:31:58;0.50;;;0.50;;
2305;SDS011;1161;51.922;8.896;2023-11-19T01:34:25;0.77;;;0.77;;
2305;SDS011;1161;51.922;8.896;2023-11-19T01:36:53;0.73;;;0.73;;
2305;SDS011;1161;51.922;8.896;2023-11-19T01:39:19;1.17;;;1.10;;
2305;SDS011;1161;51.922;8.896;2023-11-19T01:41:48;0.93;;;0.93;;
2305;SDS011;1161;51.922;8.896;2023-11-19T01:44:15;0.80;;;0.80;;
2305;SDS011;1161;51.922;8.896;2023-11-19T01:46:43;0.70;;;0.70;;
2305;SDS011;1161;51.922;8.896;2023-11-19T01:49:11;5.93;;;1.30;;
2305;SDS011;1161;51.922;8.896;2023-11-19T01:51:39;2.10;;;2.00;;
2305;SDS011;1161;51.922;8.896;2023-11-19T01:54:06;1.87;;;1.77;;
2305;SDS011;1161;51.922;8.896;2023-11-19T01:56:34;1.63;;;1.53;;
2305;SDS011;1161;51.922;8.896;2023-11-19T01:59:02;2.50;;;2.40;;
2305;SDS011;1161;51.922;8.896;2023-11-19T02:01:29;2.80;;;2.60;;
2305;SDS011;1161;51.922;8.896;2023-11-19T02:03:58;1.83;;;1.73;;
2305;SDS011;1161;51.922;8.896;2023-11-19T02:06:25;2.20;;;2.10;;
2305;SDS011;1161;51.922;8.896;2023-11-19T02:08:52;1.77;;;1.77;;
2305;SDS011;1161;51.922;8.896;2023-11-19T02:11:19;1.40;;;1.40;;
2305;SDS011;1161;51.922;8.896;2023-11-19T02:13:45;1.20;;;1.20;;
2305;SDS011;1161;51.922;8.896;2023-11-19T02:16:14;2.10;;;1.47;;
2305;SDS011;1161;51.922;8.896;2023-11-19T02:18:40;1.10;;;1.07;;
2305;SDS011;1161;51.922;8.896;2023-11-19T02:21:08;1.30;;;1.30;;
2305;SDS011;1161;51.922;8.896;2023-11-19T02:23:36;1.00;;;1.00;;
2305;SDS011;1161;51.922;8.896;2023-11-19T02:26:05;2.90;;;1.10;;
2305;SDS011;1161;51.922;8.896;2023-11-19T02:28:37;1.77;;;1.77;;
2305;SDS011;1161;51.922;8.896;2023-11-19T02:31:04;1.67;;;1.57;;
2305;SDS011;1161;51.922;8.896;2023-11-19T02:33:34;1.90;;;1.43;;
2305;SDS011;1161;51.922;8.896;2023-11-19T02:36:01;2.03;;;1.93;;
2305;SDS011;1161;51.922;8.896;2023-11-19T02:38:28;1.57;;;1.57;;
2305;SDS011;1161;51.922;8.896;2023-11-19T02:40:56;1.47;;;1.47;;
2305;SDS011;1161;51.922;8.896;2023-11-19T02:43:23;1.20;;;1.20;;
2305;SDS011;1161;51.922;8.896;2023-11-19T02:45:53;1.10;;;1.10;;
2305;SDS011;1161;51.922;8.896;2023-11-19T02:48:25;1.43;;;1.43;;
2305;SDS011;1161;51.922;8.896;2023-11-19T02:50:52;3.00;;;2.80;;
2305;SDS011;1161;51.922;8.896;2023-11-19T02:53:19;3.93;;;3.53;;
2305;SDS011;1161;51.922;8.896;2023-11-19T02:55:47;4.63;;;3.30;;
2305;SDS011;1161;51.922;8.896;2023-11-19T02:58:15;3.20;;;2.90;;
2305;SDS011;1161;51.922;8.896;2023-11-19T03:00:49;4.90;;;3.13;;
2305;SDS011;1161;51.922;8.896;2023-11-19T03:03:24;2.77;;;2.57;;
2305;SDS011;1161;51.922;8.896;2023-11-19T03:05:54;6.23;;;3.00;;
2305;SDS011;1161;51.922;8.896;2023-11-19T03:08:21;5.03;;;4.37;;
2305;SDS011;1161;51.922;8.896;2023-11-19T03:10:49;6.40;;;5.03;;
2305;SDS011;1161;51.922;8.896;2023-11-19T03:13:15;10.10;;;5.53;;
2305;SDS011;1161;51.922;8.896;2023-11-19T03:15:43;7.20;;;5.03;;
2305;SDS011;1161;51.922;8.896;2023-11-19T03:18:10;7.00;;;4.93;;
2305;SDS011;1161;51.922;8.896;2023-11-19T03:20:38;9.13;;;5.90;;
2305;SDS011;1161;51.922;8.896;2023-11-19T03:23:06;9.17;;;6.63;;
2305;SDS011;1161;51.922;8.896;2023-11-19T03:25:33;9.93;;;5.80;;
2305;SDS011;1161;51.922;8.896;2023-11-19T03:28:00;16.93;;;8.27;;
2305;SDS011;1161;51.922;8.896;2023-11-19T03:30:37;11.43;;;6.73;;
2305;SDS011;1161;51.922;8.896;2023-11-19T03:33:04;11.47;;;7.63;;
2305;SDS011;1161;51.922;8.896;2023-11-19T03:35:31;9.93;;;6.30;;
2305;SDS011;1161;51.922;8.896;2023-11-19T03:38:00;15.53;;;7.57;;
2305;SDS011;1161;51.922;8.896;2023-11-19T03:40:27;11.90;;;6.00;;
2305;SDS011;1161;51.922;8.896;2023-11-19T03:42:55;9.67;;;5.73;;
2305;SDS011;1161;51.922;8.896;2023-11-19T03:45:22;9.73;;;5.30;;
2305;SDS011;1161;51.922;8.896;2023-11-19T03:47:50;7.97;;;6.27;;
2305;SDS011;1161;51.922;8.896;2023-11-19T03:50:16;9.50;;;5.57;;
2305;SDS011;1161;51.922;8.896;2023-11-19T03:52:45;9.63;;;4.87;;
2305;SDS011;1161;51.922;8.896;2023-11-19T03:55:13;5.77;;;5.10;;
2305;SDS011;1161;51.922;8.896;2023-11-19T03:57:41;10.20;;;7.73;;
2305;SDS011;1161;51.922;8.896;2023-11-19T04:00:08;8.93;;;7.47;;
2305;SDS011;1161;51.922;8.896;2023-11-19T04:02:35;9.00;;;5.43;;
2305;SDS011;1161;51.922;8.896;2023-11-19T04:05:03;7.27;;;5.20;;
2305;SDS011;1161;51.922;8.896;2023-11-19T04:07:30;13.93;;;7.23;;
2305;SDS011;1161;51.922;8.896;2023-11-19T04:09:58;14.57;;;6.00;;
2305;SDS011;1161;51.922;8.896;2023-11-19T04:12:27;8.27;;;5.30;;
2305;SDS011;1161;51.922;8.896;2023-11-19T04:14:54;8.17;;;5.20;;
2305;SDS011;1161;51.922;8.896;2023-11-19T04:17:21;17.33;;;5.90;;
2305;SDS011;1161;51.922;8.896;2023-11-19T04:19:48;11.00;;;5.90;;
2305;SDS011;1161;51.922;8.896;2023-11-19T04:22:15;12.47;;;6.53;;
2305;SDS011;1161;51.922;8.896;2023-11-19T04:24:42;7.80;;;5.27;;
2305;SDS011;1161;51.922;8.896;2023-11-19T04:27:11;6.93;;;5.07;;
2305;SDS011;1161;51.922;8.896;2023-11-19T04:29:39;9.33;;;5.67;;
2305;SDS011;1161;51.922;8.896;2023-11-19T04:32:06;10.17;;;6.10;;
2305;SDS011;1161;51.922;8.896;2023-11-19T04:34:33;10.87;;;6.40;;
2305;SDS011;1161;51.922;8.896;2023-11-19T04:37:01;9.90;;;6.93;;
2305;SDS011;1161;51.922;8.896;2023-11-19T04:39:29;24.17;;;8.07;;
2305;SDS011;1161;51.922;8.896;2023-11-19T04:41:57;14.40;;;7.47;;
2305;SDS011;1161;51.922;8.896;2023-11-19T04:44:25;14.03;;;6.27;;
2305;SDS011;1161;51.922;8.896;2023-11-19T04:46:56;10.07;;;6.20;;
2305;SDS011;1161;51.922;8.896;2023-11-19T04:49:24;13.93;;;6.80;;
2305;SDS011;1161;51.922;8.896;2023-11-19T04:51:52;10.97;;;7.20;;
2305;SDS011;1161;51.922;8.896;2023-11-19T04:54:20;17.63;;;8.07;;
2305;SDS011;1161;51.922;8.896;2023-11-19T04:56:49;9.53;;;5.63;;
2305;SDS011;1161;51.922;8.896;2023-11-19T04:59:20;16.60;;;5.93;;
2305;SDS011;1161;51.922;8.896;2023-11-19T05:01:47;17.17;;;6.93;;
2305;SDS011;1161;51.922;8.896;2023-11-19T05:04:15;6.87;;;6.07;;
2305;SDS011;1161;51.922;8.896;2023-11-19T05:06:44;11.23;;;6.80;;
2305;SDS011;1161;51.922;8.896;2023-11-19T05:09:11;9.23;;;5.40;;
2305;SDS011;1161;51.922;8.896;2023-11-19T05:11:39;16.07;;;5.40;;
2305;SDS011;1161;51.922;8.896;2023-11-19T05:14:05;21.03;;;6.00;;
2305;SDS011;1161;51.922;8.896;2023-11-19T05:16:32;10.27;;;4.37;;
2305;SDS011;1161;51.922;8.896;2023-11-19T05:19:00;5.40;;;4.47;;
2305;SDS011;1161;51.922;8.896;2023-11-19T05:21:29;4.87;;;4.33;;
2305;SDS011;1161;51.922;8.896;2023-11-19T05:23:56;14.90;;;5.23;;
2305;SDS011;1161;51.922;8.896;2023-11-19T05:26:23;7.90;;;5.60;;
2305;SDS011;1161;51.922;8.896;2023-11-19T05:28:50;19.97;;;6.80;;
2305;SDS011;1161;51.922;8.896;2023-11-19T05:31:18;20.23;;;6.60;;
2305;SDS011;1161;51.922;8.896;2023-11-19T05:33:45;15.23;;;7.07;;
2305;SDS011;1161;51.922;8.896;2023-11-19T05:36:12;18.20;;;6.60;;
2305;SDS011;1161;51.922;8.896;2023-11-19T05:38:40;18.80;;;6.67;;
2305;SDS011;1161;51.922;8.896;2023-11-19T05:41:07;16.87;;;5.80;;
2305;SDS011;1161;51.922;8.896;2023-11-19T05:43:34;13.83;;;6.60;;
2305;SDS011;1161;51.922;8.896;2023-11-19T05:46:01;35.93;;;6.80;;
2305;SDS011;1161;51.922;8.896;2023-11-19T05:48:28;17.77;;;8.83;;
2305;SDS011;1161;51.922;8.896;2023-11-19T05:50:56;15.30;;;6.37;;
2305;SDS011;1161;51.922;8.896;2023-11-19T05:53:23;6.73;;;5.60;;
2305;SDS011;1161;51.922;8.896;2023-11-19T05:55:51;16.90;;;8.30;;
2305;SDS011;1161;51.922;8.896;2023-11-19T05:58:23;16.23;;;8.23;;
2305;SDS011;1161;51.922;8.896;2023-11-19T06:00:50;14.73;;;8.23;;
2305;SDS011;1161;51.922;8.896;2023-11-19T06:03:17;28.50;;;10.00;;
2305;SDS011;1161;51.922;8.896;2023-11-19T06:05:44;22.80;;;8.73;;
2305;SDS011;1161;51.922;8.896;2023-11-19T06:08:11;14.70;;;9.40;;
2305;SDS011;1161;51.922;8.896;2023-11-19T06:10:40;21.20;;;8.70;;
2305;SDS011;1161;51.922;8.896;2023-11-19T06:13:08;20.80;;;7.80;;
2305;SDS011;1161;51.922;8.896;2023-11-19T06:15:35;14.83;;;6.93;;
2305;SDS011;1161;51.922;8.896;2023-11-19T06:18:02;13.40;;;7.17;;
2305;SDS011;1161;51.922;8.896;2023-11-19T06:20:31;14.33;;;5.73;;
2305;SDS011;1161;51.922;8.896;2023-11-19T06:22:58;6.43;;;4.20;;
2305;SDS011;1161;51.922;8.896;2023-11-19T06:25:25;29.13;;;5.80;;
2305;SDS011;1161;51.922;8.896;2023-11-19T06:27:52;44.87;;;6.00;;
2305;SDS011;1161;51.922;8.896;2023-11-19T06:30:20;15.83;;;6.20;;
2305;SDS011;1161;51.922;8.896;2023-11-19T06:32:47;28.73;;;6.50;;
2305;SDS011;1161;51.922;8.896;2023-11-19T06:35:14;19.30;;;4.47;;
2305;SDS011;1161;51.922;8.896;2023-11-19T06:37:41;28.60;;;6.33;;
2305;SDS011;1161;51.922;8.896;2023-11-19T06:40:09;16.53;;;6.30;;
2305;SDS011;1161;51.922;8.896;2023-11-19T06:42:38;31.03;;;7.47;;
2305;SDS011;1161;51.922;8.896;2023-11-19T06:45:05;19.43;;;6.87;;
2305;SDS011;1161;51.922;8.896;2023-11-19T06:47:34;23.07;;;6.57;;
2305;SDS011;1161;51.922;8.896;2023-11-19T06:50:01;30.37;;;6.90;;
2305;SDS011;1161;51.922;8.896;2023-11-19T06:52:30;28.70;;;6.80;;
2305;SDS011;1161;51.922;8.896;2023-11-19T06:54:57;36.40;;;8.37;;
2305;SDS011;1161;51.922;8.896;2023-11-19T06:57:25;20.80;;;5.03;;
2305;SDS011;1161;51.922;8.896;2023-11-19T06:59:53;25.87;;;5.30;;
2305;SDS011;1161;51.922;8.896;2023-11-19T07:02:20;17.17;;;5.53;;
2305;SDS011;1161;51.922;8.896;2023-11-19T07:04:48;26.37;;;5.93;;
2305;SDS011;1161;51.922;8.896;2023-11-19T07:07:15;23.83;;;6.23;;
2305;SDS011;1161;51.922;8.896;2023-11-19T07:09:42;26.27;;;6.43;;
2305;SDS011;1161;51.922;8.896;2023-11-19T07:12:09;31.20;;;8.37;;
2305;SDS011;1161;51.922;8.896;2023-11-19T07:14:36;25.70;;;5.23;;
2305;SDS011;1161;51.922;8.896;2023-11-19T07:17:03;41.90;;;5.83;;
2305;SDS011;1161;51.922;8.896;2023-11-19T07:19:31;35.10;;;6.83;;
2305;SDS011;1161;51.922;8.896;2023-11-19T07:22:00;18.33;;;5.80;;
2305;SDS011;1161;51.922;8.896;2023-11-19T07:24:26;25.40;;;5.93;;
2305;SDS011;1161;51.922;8.896;2023-11-19T07:26:54;20.27;;;6.50;;
2305;SDS011;1161;51.922;8.896;2023-11-19T07:29:21;28.63;;;6.30;;
2305;SDS011;1161;51.922;8.896;2023-11-19T07:31:48;34.47;;;5.27;;
2305;SDS011;1161;51.922;8.896;2023-11-19T07:34:15;23.83;;;4.90;;
2305;SDS011;1161;51.922;8.896;2023-11-19T07:36:42;22.60;;;6.27;;
2305;SDS011;1161;51.922;8.896;2023-11-19T07:39:10;42.17;;;6.13;;
2305;SDS011;1161;51.922;8.896;2023-11-19T07:41:37;11.73;;;5.13;;
2305;SDS011;1161;51.922;8.896;2023-11-19T07:44:04;22.93;;;7.80;;
2305;SDS011;1161;51.922;8.896;2023-11-19T07:46:31;35.93;;;6.30;;
2305;SDS011;1161;51.922;8.896;2023-11-19T07:48:58;36.73;;;6.80;;
2305;SDS011;1161;51.922;8.896;2023-11-19T07:51:25;26.67;;;5.80;;
2305;SDS011;1161;51.922;8.896;2023-11-19T07:53:52;25.33;;;5.30;;
2305;SDS011;1161;51.922;8.896;2023-11-19T07:56:20;28.17;;;7.57;;
2305;SDS011;1161;51.922;8.896;2023-11-19T07:58:47;20.77;;;6.20;;
2305;SDS011;1161;51.922;8.896;2023-11-19T08:01:15;22.40;;;6.00;;
2305;SDS011;1161;51.922;8.896;2023-11-19T08:03:42;32.17;;;5.80;;
2305;SDS011;1161;51.922;8.896;2023-11-19T08:06:09;38.00;;;5.63;;
2305;SDS011;1161;51.922;8.896;2023-11-19T08:08:37;29.77;;;6.20;;
2305;SDS011;1161;51.922;8.896;2023-11-19T08:11:04;22.73;;;6.40;;
2305;SDS011;1161;51.922;8.896;2023-11-19T08:13:33;21.93;;;5.83;;
2305;SDS011;1161;51.922;8.896;2023-11-19T08:15:59;33.30;;;6.40;;
2305;SDS011;1161;51.922;8.896;2023-11-19T08:18:26;28.77;;;6.33;;
2305;SDS011;1161;51.922;8.896;2023-11-19T08:20:53;15.20;;;5.33;;
2305;SDS011;1161;51.922;8.896;2023-11-19T08:23:21;20.43;;;6.27;;
2305;SDS011;1161;51.922;8.896;2023-11-19T08:25:51;35.37;;;5.27;;
2305;SDS011;1161;51.922;8.896;2023-11-19T08:28:18;25.93;;;6.40;;
2305;SDS011;1161;51.922;8.896;2023-11-19T08:30:46;40.67;;;6.70;;
2305;SDS011;1161;51.922;8.896;2023-11-19T08:33:13;24.83;;;6.37;;
2305;SDS011;1161;51.922;8.896;2023-11-19T08:35:40;32.90;;;8.73;;
2305;SDS011;1161;51.922;8.896;2023-11-19T08:38:07;17.57;;;5.87;;
2305;SDS011;1161;51.922;8.896;2023-11-19T08:40:34;32.80;;;7.00;;
2305;SDS011;1161;51.922;8.896;2023-11-19T08:43:01;21.17;;;6.07;;
2305;SDS011;1161;51.922;8.896;2023-11-19T08:45:28;30.50;;;5.93;;
2305;SDS011;1161;51.922;8.896;2023-11-19T08:47:56;22.63;;;5.90;;
2305;SDS011;1161;51.922;8.896;2023-11-19T08:50:23;24.30;;;6.87;;
2305;SDS011;1161;51.922;8.896;2023-11-19T08:52:50;29.83;;;7.17;;
2305;SDS011;1161;51.922;8.896;2023-11-19T08:55:17;21.67;;;6.70;;
2305;SDS011;1161;51.922;8.896;2023-11-19T08:57:43;36.77;;;8.63;;
2305;SDS011;1161;51.922;8.896;2023-11-19T09:00:11;28.10;;;6.17;;
2305;SDS011;1161;51.922;8.896;2023-11-19T09:02:39;22.67;;;6.60;;
2305;SDS011;1161;51.922;8.896;2023-11-19T09:05:08;23.73;;;6.10;;
2305;SDS011;1161;51.922;8.896;2023-11-19T09:07:34;21.07;;;6.27;;
2305;SDS011;1161;51.922;8.896;2023-11-19T09:10:01;28.53;;;6.43;;
2305;SDS011;1161;51.922;8.896;2023-11-19T09:12:30;29.07;;;6.13;;
2305;SDS011;1161;51.922;8.896;2023-11-19T09:14:57;22.30;;;8.03;;
2305;SDS011;1161;51.922;8.896;2023-11-19T09:17:24;14.37;;;6.33;;
2305;SDS011;1161;51.922;8.896;2023-11-19T09:19:51;25.13;;;6.47;;
2305;SDS011;1161;51.922;8.896;2023-11-19T09:22:19;27.10;;;6.30;;
2305;SDS011;1161;51.922;8.896;2023-11-19T09:24:46;27.87;;;7.60;;
2305;SDS011;1161;51.922;8.896;2023-11-19T09:27:13;30.43;;;7.70;;
2305;SDS011;1161;51.922;8.896;2023-11-19T09:29:40;32.67;;;11.50;;
2305;SDS011;1161;51.922;8.896;2023-11-19T09:32:08;37.77;;;10.83;;
2305;SDS011;1161;51.922;8.896;2023-11-19T09:34:35;21.57;;;9.23;;
2305;SDS011;1161;51.922;8.896;2023-11-19T09:37:02;30.87;;;10.50;;
2305;SDS011;1161;51.922;8.896;2023-11-19T09:39:30;42.63;;;13.07;;
2305;SDS011;1161;51.922;8.896;2023-11-19T09:41:57;37.13;;;10.47;;
2305;SDS011;1161;51.922;8.896;2023-11-19T09:44:24;38.17;;;10.03;;
2305;SDS011;1161;51.922;8.896;2023-11-19T09:46:51;34.93;;;9.13;;
2305;SDS011;1161;51.922;8.896;2023-11-19T09:49:19;44.00;;;9.03;;
2305;SDS011;1161;51.922;8.896;2023-11-19T09:51:49;25.47;;;8.03;;
2305;SDS011;1161;51.922;8.896;2023-11-19T09:54:15;46.83;;;11.20;;
2305;SDS011;1161;51.922;8.896;2023-11-19T09:56:43;15.70;;;7.83;;
2305;SDS011;1161;51.922;8.896;2023-11-19T09:59:10;34.93;;;8.27;;
2305;SDS011;1161;51.922;8.896;2023-11-19T10:01:38;29.87;;;7.77;;
2305;SDS011;1161;51.922;8.896;2023-11-19T10:04:05;26.53;;;9.13;;
2305;SDS011;1161;51.922;8.896;2023-11-19T10:06:32;33.40;;;12.13;;
2305;SDS011;1161;51.922;8.896;2023-11-19T10:08:59;33.43;;;8.57;;
2305;SDS011;1161;51.922;8.896;2023-11-19T10:11:26;26.27;;;9.70;;
2305;SDS011;1161;51.922;8.896;2023-11-19T10:13:54;73.90;;;23.43;;
2305;SDS011;1161;51.922;8.896;2023-11-19T10:16:27;41.17;;;13.83;;
2305;SDS011;1161;51.922;8.896;2023-11-19T10:18:55;28.03;;;9.33;;
2305;SDS011;1161;51.922;8.896;2023-11-19T10:21:22;28.17;;;10.43;;
2305;SDS011;1161;51.922;8.896;2023-11-19T10:23:49;26.03;;;10.50;;
2305;SDS011;1161;51.922;8.896;2023-11-19T10:26:17;46.37;;;11.03;;
2305;SDS011;1161;51.922;8.896;2023-11-19T10:28:45;28.03;;;7.63;;
2305;SDS011;1161;51.922;8.896;2023-11-19T10:31:15;40.73;;;8.30;;
2305;SDS011;1161;51.922;8.896;2023-11-19T10:33:42;41.33;;;9.57;;
2305;SDS011;1161;51.922;8.896;2023-11-19T10:36:10;29.47;;;7.27;;
2305;SDS011;1161;51.922;8.896;2023-11-19T10:38:37;25.13;;;5.70;;
2305;SDS011;1161;51.922;8.896;2023-11-19T10:41:05;27.23;;;8.57;;
2305;SDS011;1161;51.922;8.896;2023-11-19T10:43:42;24.67;;;7.20;;
2305;SDS011;1161;51.922;8.896;2023-11-19T10:46:10;27.37;;;7.17;;
2305;SDS011;1161;51.922;8.896;2023-11-19T10:48:39;30.40;;;6.40;;
2305;SDS011;1161;51.922;8.896;2023-11-19T10:51:06;26.50;;;8.73;;
2305;SDS011;1161;51.922;8.896;2023-11-19T10:53:35;25.00;;;6.00;;
2305;SDS011;1161;51.922;8.896;2023-11-19T10:56:04;29.13;;;6.60;;
2305;SDS011;1161;51.922;8.896;2023-11-19T10:58:34;23.97;;;6.23;;
2305;SDS011;1161;51.922;8.896;2023-11-19T11:01:03;42.03;;;6.97;;
2305;SDS011;1161;51.922;8.896;2023-11-19T11:03:39;20.23;;;6.63;;
2305;SDS011;1161;51.922;8.896;2023-11-19T11:06:07;13.07;;;5.80;;
2305;SDS011;1161;51.922;8.896;2023-11-19T11:08:36;27.87;;;5.57;;
2305;SDS011;1161;51.922;8.896;2023-11-19T11:11:03;17.40;;;5.60;;
2305;SDS011;1161;51.922;8.896;2023-11-19T11:13:31;43.73;;;7.23;;
2305;SDS011;1161;51.922;8.896;2023-11-19T11:15:59;17.97;;;6.87;;
2305;SDS011;1161;51.922;8.896;2023-11-19T11:18:26;30.03;;;6.10;;
2305;SDS011;1161;51.922;8.896;2023-11-19T11:20:55;56.60;;;9.47;;
2305;SDS011;1161;51.922;8.896;2023-11-19T11:23:31;26.33;;;6.00;;
2305;SDS011;1161;51.922;8.896;2023-11-19T11:26:32;30.17;;;6.67;;
2305;SDS011;1161;51.922;8.896;2023-11-19T11:29:16;25.03;;;8.47;;
2305;SDS011;1161;51.922;8.896;2023-11-19T11:31:51;22.53;;;6.47;;
2305;SDS011;1161;51.922;8.896;2023-11-19T11:34:27;22.70;;;6.57;;
2305;SDS011;1161;51.922;8.896;2023-11-19T11:37:06;35.30;;;9.10;;
2305;SDS011;1161;51.922;8.896;2023-11-19T11:39:39;30.63;;;5.80;;
2305;SDS011;1161;51.922;8.896;2023-11-19T11:45:00;16.40;;;4.93;;
2305;SDS011;1161;51.922;8.896;2023-11-19T11:50:28;28.77;;;6.70;;
2305;SDS011;1161;51.922;8.896;2023-11-19T11:55:55;16.30;;;5.17;;
2305;SDS011;1161;51.922;8.896;2023-11-19T11:58:31;28.47;;;6.70;;
2305;SDS011;1161;51.922;8.896;2023-11-19T12:00:59;32.07;;;7.13;;
2305;SDS011;1161;51.922;8.896;2023-11-19T12:03:28;33.50;;;7.27;;
2305;SDS011;1161;51.922;8.896;2023-11-19T12:05:55;19.47;;;7.83;;
2305;SDS011;1161;51.922;8.896;2023-11-19T12:08:26;41.03;;;7.27;;
2305;SDS011;1161;51.922;8.896;2023-11-19T12:10:54;30.57;;;7.70;;
2305;SDS011;1161;51.922;8.896;2023-11-19T12:13:23;32.90;;;6.80;;
2305;SDS011;1161;51.922;8.896;2023-11-19T12:16:07;28.17;;;6.57;;
2305;SDS011;1161;51.922;8.896;2023-11-19T12:18:33;26.63;;;7.17;;
2305;SDS011;1161;51.922;8.896;2023-11-19T12:21:01;21.77;;;7.47;;
2305;SDS011;1161;51.922;8.896;2023-11-19T12:23:29;19.43;;;7.20;;
2305;SDS011;1161;51.922;8.896;2023-11-19T12:25:57;38.87;;;9.03;;
2305;SDS011;1161;51.922;8.896;2023-11-19T12:28:24;26.87;;;6.00;;
2305;SDS011;1161;51.922;8.896;2023-11-19T12:30:52;36.30;;;8.57;;
2305;SDS011;1161;51.922;8.896;2023-11-19T12:33:19;27.97;;;7.10;;
2305;SDS011;1161;51.922;8.896;2023-11-19T12:35:47;25.10;;;7.27;;
2305;SDS011;1161;51.922;8.896;2023-11-19T12:38:20;23.90;;;6.50;;
2305;SDS011;1161;51.922;8.896;2023-11-19T12:41:03;23.83;;;6.07;;
2305;SDS011;1161;51.922;8.896;2023-11-19T12:43:30;27.47;;;5.23;;
2305;SDS011;1161;51.922;8.896;2023-11-19T12:45:57;32.53;;;6.63;;
2305;SDS011;1161;51.922;8.896;2023-11-19T12:48:24;26.63;;;5.73;;
2305;SDS011;1161;51.922;8.896;2023-11-19T12:50:51;28.07;;;6.90;;
2305;SDS011;1161;51.922;8.896;2023-11-19T12:53:19;33.17;;;8.80;;
2305;SDS011;1161;51.922;8.896;2023-11-19T12:55:46;40.00;;;7.93;;
2305;SDS011;1161;51.922;8.896;2023-11-19T13:01:08;35.60;;;8.07;;
2305;SDS011;1161;51.922;8.896;2023-11-19T13:03:36;24.33;;;7.10;;
2305;SDS011;1161;51.922;8.896;2023-11-19T13:06:04;27.70;;;7.97;;
2305;SDS011;1161;51.922;8.896;2023-11-19T13:08:36;20.93;;;6.97;;
2305;SDS011;1161;51.922;8.896;2023-11-19T13:11:04;34.37;;;8.40;;
2305;SDS011;1161;51.922;8.896;2023-11-19T13:13:33;31.17;;;6.53;;
2305;SDS011;1161;51.922;8.896;2023-11-19T13:16:01;28.80;;;8.80;;
2305;SDS011;1161;51.922;8.896;2023-11-19T13:18:32;19.07;;;5.63;;
2305;SDS011;1161;51.922;8.896;2023-11-19T13:20:58;27.60;;;5.70;;
2305;SDS011;1161;51.922;8.896;2023-11-19T13:23:26;31.30;;;5.20;;
2305;SDS011;1161;51.922;8.896;2023-11-19T13:25:53;28.37;;;5.57;;
2305;SDS011;1161;51.922;8.896;2023-11-19T13:28:19;27.77;;;9.27;;
2305;SDS011;1161;51.922;8.896;2023-11-19T13:30:47;22.23;;;5.70;;
2305;SDS011;1161;51.922;8.896;2023-11-19T13:33:14;33.13;;;6.40;;
2305;SDS011;1161;51.922;8.896;2023-11-19T13:35:43;22.50;;;7.57;;
2305;SDS011;1161;51.922;8.896;2023-11-19T13:38:09;35.43;;;5.93;;
2305;SDS011;1161;51.922;8.896;2023-11-19T13:40:36;23.20;;;7.07;;
2305;SDS011;1161;51.922;8.896;2023-11-19T13:43:04;29.03;;;5.07;;
2305;SDS011;1161;51.922;8.896;2023-11-19T13:45:31;18.30;;;5.40;;
2305;SDS011;1161;51.922;8.896;2023-11-19T13:47:58;15.27;;;6.80;;
2305;SDS011;1161;51.922;8.896;2023-11-19T13:50:25;18.43;;;5.50;;
2305;SDS011;1161;51.922;8.896;2023-11-19T13:52:55;39.27;;;7.20;;
2305;SDS011;1161;51.922;8.896;2023-11-19T13:55:22;21.60;;;7.70;;
2305;SDS011;1161;51.922;8.896;2023-11-19T13:57:49;20.63;;;6.83;;
2305;SDS011;1161;51.922;8.896;2023-11-19T14:00:16;23.13;;;7.87;;
2305;SDS011;1161;51.922;8.896;2023-11-19T14:02:44;25.07;;;7.87;;
2305;SDS011;1161;51.922;8.896;2023-11-19T14:05:12;33.23;;;7.63;;
2305;SDS011;1161;51.922;8.896;2023-11-19T14:07:40;39.43;;;11.63;;
2305;SDS011;1161;51.922;8.896;2023-11-19T14:10:09;25.00;;;11.07;;
2305;SDS011;1161;51.922;8.896;2023-11-19T14:12:36;24.50;;;7.60;;
2305;SDS011;1161;51.922;8.896;2023-11-19T14:15:04;33.37;;;6.20;;
2305;SDS011;1161;51.922;8.896;2023-11-19T14:17:31;21.03;;;8.13;;
2305;SDS011;1161;51.922;8.896;2023-11-19T14:19:59;32.70;;;11.07;;
2305;SDS011;1161;51.922;8.896;2023-11-19T14:22:26;23.57;;;8.50;;
2305;SDS011;1161;51.922;8.896;2023-11-19T14:24:52;19.03;;;6.90;;
2305;SDS011;1161;51.922;8.896;2023-11-19T14:27:21;20.93;;;6.97;;
2305;SDS011;1161;51.922;8.896;2023-11-19T14:29:48;27.63;;;7.07;;
2305;SDS011;1161;51.922;8.896;2023-11-19T14:32:16;27.30;;;6.50;;
2305;SDS011;1161;51.922;8.896;2023-11-19T14:34:43;25.33;;;7.10;;
2305;SDS011;1161;51.922;8.896;2023-11-19T14:37:10;21.50;;;6.40;;
2305;SDS011;1161;51.922;8.896;2023-11-19T14:39:38;23.73;;;6.30;;
2305;SDS011;1161;51.922;8.896;2023-11-19T14:42:05;19.70;;;5.57;;
2305;SDS011;1161;51.922;8.896;2023-11-19T14:44:33;24.27;;;5.70;;
2305;SDS011;1161;51.922;8.896;2023-11-19T14:47:00;28.57;;;6.80;;
2305;SDS011;1161;51.922;8.896;2023-11-19T14:49:27;18.90;;;5.70;;
2305;SDS011;1161;51.922;8.896;2023-11-19T14:51:54;20.37;;;4.83;;
2305;SDS011;1161;51.922;8.896;2023-11-19T14:54:21;15.17;;;4.57;;
2305;SDS011;1161;51.922;8.896;2023-11-19T14:56:49;23.73;;;5.07;;
2305;SDS011;1161;51.922;8.896;2023-11-19T14:59:17;18.83;;;4.27;;
2305;SDS011;1161;51.922;8.896;2023-11-19T15:01:45;32.23;;;4.90;;
2305;SDS011;1161;51.922;8.896;2023-11-19T15:04:12;13.80;;;3.40;;
2305;SDS011;1161;51.922;8.896;2023-11-19T15:06:39;14.27;;;5.80;;
2305;SDS011;1161;51.922;8.896;2023-11-19T15:09:06;18.93;;;5.47;;
2305;SDS011;1161;51.922;8.896;2023-11-19T15:11:35;10.57;;;4.07;;
2305;SDS011;1161;51.922;8.896;2023-11-19T15:14:01;11.70;;;5.13;;
2305;SDS011;1161;51.922;8.896;2023-11-19T15:16:28;11.93;;;3.80;;
2305;SDS011;1161;51.922;8.896;2023-11-19T15:19:00;9.23;;;3.40;;
2305;SDS011;1161;51.922;8.896;2023-11-19T15:21:28;6.57;;;3.30;;